Time;durP1;ratioP1;P1;durP2;ratioP2;P2;SDS_P1;SDS_P2;PMS_P1;PMS_P2;Temp;Humidity;BMP_temperature;BMP_pressure;BME280_temperature;BME280_humidity;BME280_pressure;Samples;Min_cycle;Max_cycle;Signal;HPM_P1;HPM_P2
2022/10/09 00:00:09;;;;;;;;;;;13.60;99.90;13.80;99989.00;;;;339979;28;90139;-88
2022/10/09 00:00:21;;;;;;;;;;;13.50;99.90;13.80;99998.00;;;;338701;28;83461;-88
2022/10/09 00:00:32;;;;;;;;;;;13.50;99.90;13.70;100001.00;;;;339951;28;92315;-88
2022/10/09 00:00:45;;;;;;;;;;;13.50;99.90;13.70;99987.00;;;;346060;28;83644;-88
2022/10/09 00:01:08;;;;;;;;;;;13.50;99.90;13.70;100002.00;;;;345766;28;87936;-88
2022/10/09 00:01:22;;;;;;;;;;;13.50;99.90;13.80;99999.00;;;;341752;28;83489;-88
2022/10/09 00:01:33;;;;;;;;;;;13.50;99.90;13.80;99999.00;;;;338746;28;90471;-88
2022/10/09 00:01:45;;;;;;;;;;;13.50;99.90;13.80;99993.00;;;;337819;28;83382;-88
2022/10/09 00:01:57;;;;;;;;;;;13.50;99.90;13.80;99987.00;;;;338737;28;90507;-87
2022/10/09 00:02:09;;;;;;;;;;;13.50;99.90;13.80;99995.00;;;;339046;28;83531;-88
2022/10/09 00:02:20;;;;;;;;;;;13.50;99.90;13.80;99995.00;;;;338611;28;91222;-88
2022/10/09 00:02:32;;;;;;;;;;;13.50;99.90;13.80;99999.00;;;;346083;28;83812;-88
2022/10/09 00:02:44;;;;;;;;;;;13.50;99.90;13.80;99995.00;;;;339898;28;91999;-88
2022/10/09 00:02:56;;;;;;;;;;;13.60;99.90;13.80;100001.00;;;;338953;28;83456;-88
2022/10/09 00:03:08;;;;;;;;;;;13.50;99.90;13.70;100000.00;;;;338615;28;91415;-88
2022/10/09 00:03:19;;;;;;;;;;;13.50;99.90;13.70;99992.00;;;;340354;28;82563;-88
2022/10/09 00:03:32;;;;;;;;;;;13.50;99.90;13.80;99999.00;;;;338773;28;89051;-88
2022/10/09 00:03:44;;;;;;;;;;;13.50;99.90;13.70;99996.00;;;;345892;28;83568;-88
2022/10/09 00:03:57;;;;;;;;;;;13.50;99.90;13.70;99993.00;;;;344256;28;88391;-89
2022/10/09 00:04:08;;;;;;;;;;;13.50;99.90;13.70;99991.00;;;;344777;28;83433;-88
2022/10/09 00:04:20;;;;;;;;;;;13.50;99.90;13.70;100000.00;;;;338639;28;92112;-89
2022/10/09 00:04:32;;;;;;;;;;;13.50;99.90;13.70;99998.00;;;;340477;28;82686;-88
2022/10/09 00:04:43;;;;;;;;;;;13.50;99.90;13.80;100002.00;;;;339920;28;89548;-88
2022/10/09 00:04:55;;;;;;;;;;;13.50;99.90;13.80;99997.00;;;;340520;28;82387;-88
2022/10/09 00:05:07;;;;;;;;;;;13.50;99.90;13.80;99998.00;;;;339972;28;91219;-88
2022/10/09 00:05:22;;;;;;;;;;;13.50;99.90;13.80;100002.00;;;;339232;28;83390;-88
2022/10/09 00:05:34;;;;;;;;;;;13.50;99.90;13.80;99992.00;;;;338586;28;90316;-88
2022/10/09 00:05:46;;;;;;;;;;;13.50;99.90;13.80;100004.00;;;;340498;28;83396;-88
2022/10/09 00:05:57;;;;;;;;;;;13.50;99.90;13.90;99994.00;;;;337331;28;91599;-88
2022/10/09 00:06:12;;;;;;;;;;;13.50;99.90;13.90;100002.00;;;;339303;28;82549;-89
2022/10/09 00:06:25;;;;;;;;;;;13.50;99.90;13.90;99996.00;;;;338547;28;91051;-88
2022/10/09 00:06:38;;;;;;;;;;;13.50;99.90;13.80;99997.00;;;;337662;28;82586;-88
2022/10/09 00:06:49;;;;;;;;;;;13.50;99.90;13.90;99995.00;;;;338641;28;88041;-88
2022/10/09 00:07:01;;;;;;;;;;;13.50;99.90;13.90;100003.00;;;;341876;28;83444;-88
2022/10/09 00:07:13;;;;;;;;;;;13.50;99.90;13.90;99994.00;;;;338576;28;90635;-89
2022/10/09 00:07:25;;;;;;;;;;;13.50;99.90;13.90;100004.00;;;;340303;28;82622;-88
2022/10/09 00:07:37;;;;;;;;;;;13.50;99.90;13.80;99998.00;;;;338793;28;88700;-87
2022/10/09 00:07:48;;;;;;;;;;;13.50;99.90;13.80;100003.00;;;;339270;28;83304;-88
2022/10/09 00:08:00;;;;;;;;;;;13.50;99.90;13.80;99997.00;;;;337349;28;91814;-88
2022/10/09 00:08:12;;;;;;;;;;;13.50;99.90;13.90;99993.00;;;;336506;28;83362;-88
2022/10/09 00:08:24;;;;;;;;;;;13.50;99.90;13.80;99994.00;;;;337347;28;88435;-88
2022/10/09 00:08:38;;;;;;;;;;;13.50;99.90;13.70;100000.00;;;;339131;28;83513;-88
2022/10/09 00:08:50;;;;;;;;;;;13.50;99.90;13.70;99998.00;;;;338755;28;91708;-88
2022/10/09 00:09:02;;;;;;;;;;;13.50;99.90;13.80;99992.00;;;;338919;28;83352;-88
2022/10/09 00:09:15;;;;;;;;;;;13.50;99.90;13.80;100005.00;;;;340025;28;89564;-88
2022/10/09 00:09:27;;;;;;;;;;;13.50;99.90;13.80;100003.00;;;;337804;28;83489;-88
2022/10/09 00:09:39;;;;;;;;;;;13.50;99.90;13.80;100006.00;;;;346916;28;89718;-88
2022/10/09 00:09:51;;;;;;;;;;;13.50;99.90;13.70;99997.00;;;;344748;28;83468;-89
2022/10/09 00:10:03;;;;;;;;;;;13.50;99.90;13.80;100002.00;;;;335995;28;90863;-88
2022/10/09 00:10:14;;;;;;;;;;;13.50;99.90;13.80;100000.00;;;;337875;28;82525;-89
2022/10/09 00:10:26;;;;;;;;;;;13.50;99.90;13.80;99998.00;;;;337280;28;92205;-88
2022/10/09 00:10:41;;;;;;;;;;;13.50;99.90;13.70;99999.00;;;;340298;28;83477;-89
2022/10/09 00:10:53;;;;;;;;;;;13.50;99.90;13.80;99995.00;;;;338533;28;90431;-88
2022/10/09 00:11:06;;;;;;;;;;;13.50;99.90;13.70;99999.00;;;;337629;28;83515;-88
2022/10/09 00:11:22;;;;;;;;;;;13.50;99.90;13.70;100009.00;;;;338400;28;90875;-88
2022/10/09 00:11:34;;;;;;;;;;;13.50;99.90;13.80;100006.00;;;;336504;28;82724;-88
2022/10/09 00:11:46;;;;;;;;;;;13.50;99.90;13.80;100003.00;;;;338855;28;88460;-88
2022/10/09 00:11:58;;;;;;;;;;;13.50;99.90;13.80;100001.00;;;;337579;28;83505;-89
2022/10/09 00:12:10;;;;;;;;;;;13.40;99.90;13.80;100004.00;;;;337446;28;89139;-89
2022/10/09 00:12:22;;;;;;;;;;;13.50;99.90;13.80;100008.00;;;;339066;28;84228;-88
2022/10/09 00:12:37;;;;;;;;;;;13.50;99.90;13.70;100009.00;;;;337355;28;89490;-87
2022/10/09 00:12:49;;;;;;;;;;;13.50;99.90;13.70;100004.00;;;;337819;28;82683;-88
2022/10/09 00:13:01;;;;;;;;;;;13.50;99.90;13.80;100002.00;;;;338470;28;92317;-89
2022/10/09 00:13:13;;;;;;;;;;;13.50;99.90;13.80;100007.00;;;;339270;28;82471;-89
2022/10/09 00:13:24;;;;;;;;;;;13.50;99.90;13.80;99992.00;;;;338378;28;91498;-88
2022/10/09 00:13:36;;;;;;;;;;;13.50;99.90;13.80;99998.00;;;;340540;28;83308;-88
2022/10/09 00:13:48;;;;;;;;;;;13.50;99.90;13.80;100004.00;;;;340173;28;88050;-88
2022/10/09 00:14:00;;;;;;;;;;;13.50;99.90;13.80;100007.00;;;;339149;28;83457;-89
2022/10/09 00:14:12;;;;;;;;;;;13.50;99.90;13.80;100006.00;;;;338698;28;87728;-89
2022/10/09 00:14:24;;;;;;;;;;;13.50;99.90;13.80;99998.00;;;;337691;28;83430;-88
2022/10/09 00:14:36;;;;;;;;;;;13.50;99.90;13.80;99995.00;;;;340047;28;89731;-88
2022/10/09 00:14:48;;;;;;;;;;;13.50;99.90;13.80;100001.00;;;;340382;28;83500;-88
2022/10/09 00:14:59;;;;;;;;;;;13.50;99.90;13.70;100005.00;;;;338570;28;90335;-89
2022/10/09 00:15:11;;;;;;;;;;;13.50;99.90;13.70;100004.00;;;;337838;28;83494;-89
2022/10/09 00:15:23;;;;;;;;;;;13.40;99.90;13.80;100004.00;;;;339870;28;88897;-88
2022/10/09 00:15:38;;;;;;;;;;;13.50;99.90;13.80;100003.00;;;;339198;28;83521;-89
2022/10/09 00:15:50;;;;;;;;;;;13.50;99.90;13.80;100000.00;;;;336168;28;87828;-89
2022/10/09 00:16:05;;;;;;;;;;;13.50;99.90;13.80;100007.00;;;;339422;28;83601;-88
2022/10/09 00:16:18;;;;;;;;;;;13.50;99.90;13.80;100012.00;;;;338615;28;89628;-89
2022/10/09 00:16:30;;;;;;;;;;;13.50;99.90;13.80;100014.00;;;;337871;28;83208;-88
2022/10/09 00:16:42;;;;;;;;;;;13.50;99.90;13.80;100004.00;;;;339538;28;92160;-88
2022/10/09 00:16:54;;;;;;;;;;;13.50;99.90;13.80;100008.00;;;;338896;28;83179;-89
2022/10/09 00:17:05;;;;;;;;;;;13.50;99.90;13.80;100004.00;;;;337420;28;89168;-88
2022/10/09 00:17:17;;;;;;;;;;;13.50;99.90;13.80;100011.00;;;;337647;28;83500;-89
2022/10/09 00:17:29;;;;;;;;;;;13.50;99.90;13.80;100009.00;;;;337362;28;89632;-88
2022/10/09 00:17:40;;;;;;;;;;;13.50;99.90;13.80;100017.00;;;;340554;28;82445;-89
2022/10/09 00:17:52;;;;;;;;;;;13.50;99.90;13.70;100010.00;;;;341123;28;90672;-88
2022/10/09 00:18:05;;;;;;;;;;;13.50;99.90;13.70;100012.00;;;;337890;28;82434;-88
2022/10/09 00:18:17;;;;;;;;;;;13.50;99.90;13.80;100011.00;;;;336149;28;88057;-88
2022/10/09 00:18:29;;;;;;;;;;;13.40;99.90;13.70;100005.00;;;;340505;28;83245;-89
2022/10/09 00:18:40;;;;;;;;;;;13.50;99.90;13.70;100017.00;;;;337193;28;92285;-88
2022/10/09 00:18:52;;;;;;;;;;;13.50;99.90;13.70;100004.00;;;;337818;28;83476;-88
2022/10/09 00:19:04;;;;;;;;;;;13.50;99.90;13.70;100015.00;;;;338688;28;91435;-88
2022/10/09 00:19:15;;;;;;;;;;;13.50;99.90;13.70;100005.00;;;;338140;28;82599;-89
2022/10/09 00:19:27;;;;;;;;;;;13.50;99.90;13.80;100005.00;;;;339894;28;91495;-89
2022/10/09 00:19:39;;;;;;;;;;;13.50;99.90;13.70;100003.00;;;;339121;28;82601;-88
2022/10/09 00:19:51;;;;;;;;;;;13.50;99.90;13.80;100002.00;;;;338671;28;90227;-87
2022/10/09 00:20:03;;;;;;;;;;;13.40;99.90;13.70;100007.00;;;;339149;28;83446;-88
2022/10/09 00:20:14;;;;;;;;;;;13.50;99.90;13.70;100012.00;;;;337440;28;90323;-88
2022/10/09 00:20:26;;;;;;;;;;;13.40;99.90;13.60;100008.00;;;;337694;28;83479;-88
2022/10/09 00:20:41;;;;;;;;;;;13.50;99.90;13.60;100018.00;;;;338331;28;91485;-88
2022/10/09 00:20:53;;;;;;;;;;;13.50;99.90;13.70;100014.00;;;;345993;28;83574;-89
2022/10/09 00:21:05;;;;;;;;;;;13.40;99.90;13.70;100002.00;;;;345576;28;90871;-88
2022/10/09 00:21:29;;;;;;;;;;;13.40;99.90;13.60;100008.00;;;;337843;28;82493;-88
2022/10/09 00:21:41;;;;;;;;;;;13.40;99.90;13.70;99995.00;;;;338833;28;89564;-88
2022/10/09 00:21:53;;;;;;;;;;;13.40;99.90;13.60;100006.00;;;;340899;28;82474;-88
2022/10/09 00:22:04;;;;;;;;;;;13.40;99.90;13.60;100007.00;;;;340453;28;90889;-88
2022/10/09 00:22:16;;;;;;;;;;;13.40;99.90;13.60;100004.00;;;;344010;28;82482;-88
2022/10/09 00:22:28;;;;;;;;;;;13.40;99.90;13.70;100006.00;;;;343312;28;90429;-89
2022/10/09 00:22:42;;;;;;;;;;;13.40;99.90;13.70;100002.00;;;;338486;28;82492;-88
2022/10/09 00:22:54;;;;;;;;;;;13.40;99.90;13.70;100002.00;;;;347390;27;90632;-88
2022/10/09 00:23:06;;;;;;;;;;;13.40;99.90;13.70;100002.00;;;;339548;28;82540;-88
2022/10/09 00:23:18;;;;;;;;;;;13.40;99.90;13.70;99999.00;;;;336541;28;91571;-88
2022/10/09 00:23:30;;;;;;;;;;;13.40;99.90;13.70;100003.00;;;;339838;28;83505;-88
2022/10/09 00:23:41;;;;;;;;;;;13.40;99.90;13.70;100000.00;;;;340554;28;90762;-88
2022/10/09 00:23:57;;;;;;;;;;;13.40;99.90;13.60;100007.00;;;;339828;28;83523;-87
2022/10/09 00:24:08;;;;;;;;;;;13.40;99.90;13.70;100007.00;;;;338048;28;90327;-88
2022/10/09 00:24:20;;;;;;;;;;;13.40;99.90;13.70;100002.00;;;;339666;28;82526;-89
2022/10/09 00:24:32;;;;;;;;;;;13.40;99.90;13.70;100003.00;;;;338952;28;90257;-88
2022/10/09 00:24:43;;;;;;;;;;;13.40;99.90;13.70;100003.00;;;;339701;28;82591;-89
2022/10/09 00:24:55;;;;;;;;;;;13.40;99.90;13.60;100001.00;;;;339264;28;88871;-88
2022/10/09 00:25:07;;;;;;;;;;;13.40;99.90;13.60;100003.00;;;;340889;28;84230;-90
2022/10/09 00:25:19;;;;;;;;;;;13.40;99.90;13.70;100007.00;;;;340679;28;87662;-88
2022/10/09 00:25:31;;;;;;;;;;;13.40;99.90;13.70;99997.00;;;;339490;28;83529;-89
2022/10/09 00:25:52;;;;;;;;;;;13.40;99.90;13.70;100004.00;;;;337918;28;90252;-88
2022/10/09 00:26:05;;;;;;;;;;;13.40;99.90;13.60;100000.00;;;;341030;28;82482;-88
2022/10/09 00:26:17;;;;;;;;;;;13.40;99.90;13.70;100000.00;;;;340485;28;90725;-88
2022/10/09 00:26:29;;;;;;;;;;;13.40;99.90;13.70;100009.00;;;;339678;28;82524;-88
2022/10/09 00:26:41;;;;;;;;;;;13.40;99.90;13.60;100011.00;;;;338798;28;90599;-88
2022/10/09 00:26:53;;;;;;;;;;;13.40;99.90;13.70;99997.00;;;;338186;28;84193;-88
2022/10/09 00:27:05;;;;;;;;;;;13.40;99.90;13.60;100002.00;;;;341975;28;88995;-88
2022/10/09 00:27:17;;;;;;;;;;;13.40;99.90;13.70;100001.00;;;;339590;28;82478;-89
2022/10/09 00:27:28;;;;;;;;;;;13.40;99.90;13.60;100007.00;;;;338950;28;91637;-87
2022/10/09 00:27:40;;;;;;;;;;;13.40;99.90;13.70;100003.00;;;;338279;28;82583;-88
2022/10/09 00:27:52;;;;;;;;;;;13.40;99.90;13.60;99998.00;;;;340437;28;90728;-88
2022/10/09 00:28:04;;;;;;;;;;;13.40;99.90;13.70;99998.00;;;;338330;28;83458;-88
2022/10/09 00:28:15;;;;;;;;;;;13.40;99.90;13.60;99995.00;;;;338179;28;89984;-88
2022/10/09 00:28:28;;;;;;;;;;;13.40;99.90;13.60;99998.00;;;;342148;27;83546;-89
2022/10/09 00:28:40;;;;;;;;;;;13.40;99.90;13.60;100003.00;;;;337835;28;89436;-89
2022/10/09 00:28:52;;;;;;;;;;;13.40;99.90;13.70;100004.00;;;;341142;28;82491;-88
2022/10/09 00:29:04;;;;;;;;;;;13.40;99.90;13.70;100002.00;;;;339585;28;91954;-88
2022/10/09 00:29:16;;;;;;;;;;;13.40;99.90;13.70;100000.00;;;;339662;28;83571;-88
2022/10/09 00:29:27;;;;;;;;;;;13.40;99.90;13.80;100005.00;;;;337852;28;89013;-89
2022/10/09 00:29:39;;;;;;;;;;;13.40;99.90;13.80;100002.00;;;;338509;28;82661;-88
2022/10/09 00:29:51;;;;;;;;;;;13.40;99.90;13.80;99996.00;;;;339181;28;91027;-88
2022/10/09 00:30:03;;;;;;;;;;;13.40;99.90;13.80;99998.00;;;;339491;28;84082;-88
2022/10/09 00:30:15;;;;;;;;;;;13.40;99.90;13.80;99990.00;;;;339029;28;90717;-88
2022/10/09 00:30:27;;;;;;;;;;;13.40;99.90;13.80;100002.00;;;;339016;28;82528;-88
2022/10/09 00:30:39;;;;;;;;;;;13.40;99.90;13.70;99996.00;;;;340239;28;89004;-88
2022/10/09 00:30:51;;;;;;;;;;;13.50;99.90;13.70;99999.00;;;;338023;28;82539;-89
2022/10/09 00:31:04;;;;;;;;;;;13.40;99.90;13.80;100001.00;;;;337462;28;92694;-88
2022/10/09 00:31:16;;;;;;;;;;;13.40;99.90;13.80;99996.00;;;;337936;28;82459;-89
2022/10/09 00:31:28;;;;;;;;;;;13.40;99.90;13.70;99988.00;;;;337483;28;89088;-89
2022/10/09 00:31:39;;;;;;;;;;;13.40;99.90;13.60;99999.00;;;;339558;28;82401;-88
2022/10/09 00:31:51;;;;;;;;;;;13.40;99.90;13.70;100003.00;;;;337565;28;88307;-88
2022/10/09 00:32:03;;;;;;;;;;;13.40;99.90;13.70;99995.00;;;;338254;28;82555;-88
2022/10/09 00:32:14;;;;;;;;;;;13.40;99.90;13.80;99993.00;;;;339117;28;91509;-88
2022/10/09 00:32:26;;;;;;;;;;;13.40;99.90;13.70;99998.00;;;;338412;28;82519;-88
2022/10/09 00:32:38;;;;;;;;;;;13.40;99.90;13.60;99981.00;;;;337385;28;91619;-88
2022/10/09 00:32:50;;;;;;;;;;;13.40;99.90;13.70;100005.00;;;;338129;28;83462;-89
2022/10/09 00:33:02;;;;;;;;;;;13.40;99.90;13.70;99996.00;;;;337350;28;90079;-88
2022/10/09 00:33:13;;;;;;;;;;;13.50;99.90;13.70;99994.00;;;;339340;28;83321;-88
2022/10/09 00:33:25;;;;;;;;;;;13.40;99.90;13.70;100004.00;;;;338575;28;91872;-89
2022/10/09 00:33:37;;;;;;;;;;;13.40;99.90;13.80;100000.00;;;;339160;28;83526;-89
2022/10/09 00:33:49;;;;;;;;;;;13.50;99.90;13.70;99996.00;;;;339183;28;87964;-88
2022/10/09 00:34:00;;;;;;;;;;;13.50;99.90;13.70;99990.00;;;;337710;28;82601;-88
2022/10/09 00:34:13;;;;;;;;;;;13.40;99.90;13.70;99996.00;;;;339968;28;88043;-89
2022/10/09 00:34:25;;;;;;;;;;;13.40;99.90;13.60;100010.00;;;;340485;28;82351;-88
2022/10/09 00:34:37;;;;;;;;;;;13.40;99.90;13.60;99998.00;;;;338637;28;88416;-88
2022/10/09 00:34:50;;;;;;;;;;;13.40;99.90;13.60;100004.00;;;;339150;28;83512;-88
2022/10/09 00:35:01;;;;;;;;;;;13.40;99.90;13.70;99996.00;;;;337328;28;92449;-89
2022/10/09 00:35:13;;;;;;;;;;;13.40;99.90;13.60;99995.00;;;;339145;28;83411;-88
2022/10/09 00:35:25;;;;;;;;;;;13.40;99.90;13.50;100001.00;;;;337342;28;90187;-89
2022/10/09 00:35:37;;;;;;;;;;;13.40;99.90;13.60;99999.00;;;;337769;28;83403;-88
2022/10/09 00:35:49;;;;;;;;;;;13.40;99.90;13.60;99992.00;;;;338487;28;90055;-88
2022/10/09 00:36:05;;;;;;;;;;;13.40;99.90;13.60;99999.00;;;;339052;28;82588;-88
2022/10/09 00:36:19;;;;;;;;;;;13.40;99.90;13.70;99992.00;;;;337379;28;89147;-88
2022/10/09 00:36:30;;;;;;;;;;;13.40;99.90;13.70;99993.00;;;;337783;28;82540;-89
2022/10/09 00:36:44;;;;;;;;;;;13.40;99.90;13.60;100005.00;;;;338795;28;87678;-88
2022/10/09 00:36:55;;;;;;;;;;;13.40;99.90;13.60;99998.00;;;;339537;28;82437;-88
2022/10/09 00:37:07;;;;;;;;;;;13.40;99.90;13.60;99993.00;;;;338721;28;89413;-88
2022/10/09 00:37:19;;;;;;;;;;;13.40;99.90;13.60;99999.00;;;;340138;28;83528;-88
2022/10/09 00:37:30;;;;;;;;;;;13.40;99.90;13.70;99992.00;;;;338602;28;89484;-88
2022/10/09 00:37:42;;;;;;;;;;;13.40;99.90;13.70;99994.00;;;;340223;28;82629;-89
2022/10/09 00:37:54;;;;;;;;;;;13.30;99.90;13.70;99996.00;;;;338756;28;90200;-88
2022/10/09 00:38:06;;;;;;;;;;;13.40;99.90;13.70;100000.00;;;;337788;28;83450;-89
2022/10/09 00:38:17;;;;;;;;;;;13.40;99.90;13.70;99990.00;;;;338992;28;90348;-88
2022/10/09 00:38:29;;;;;;;;;;;13.40;99.90;13.80;99992.00;;;;338458;28;82415;-88
2022/10/09 00:38:42;;;;;;;;;;;13.40;99.90;13.70;99985.00;;;;339351;28;88370;-88
2022/10/09 00:38:54;;;;;;;;;;;13.40;99.90;13.70;99994.00;;;;339835;28;83540;-88
2022/10/09 00:39:05;;;;;;;;;;;13.40;99.90;13.70;99998.00;;;;337958;28;89721;-88
2022/10/09 00:39:17;;;;;;;;;;;13.40;99.90;13.60;100003.00;;;;339318;28;82587;-88
2022/10/09 00:39:29;;;;;;;;;;;13.40;99.90;13.70;100002.00;;;;340450;28;89740;-88
2022/10/09 00:39:41;;;;;;;;;;;13.40;99.90;13.70;99995.00;;;;341575;28;82474;-88
2022/10/09 00:39:53;;;;;;;;;;;13.40;99.90;13.70;99994.00;;;;341034;28;89134;-88
2022/10/09 00:40:05;;;;;;;;;;;13.40;99.90;13.70;99996.00;;;;339726;28;82690;-88
2022/10/09 00:40:17;;;;;;;;;;;13.40;99.90;13.70;99988.00;;;;341641;28;88387;-88
2022/10/09 00:40:28;;;;;;;;;;;13.40;99.90;13.80;99995.00;;;;339673;28;82464;-88
2022/10/09 00:40:40;;;;;;;;;;;13.40;99.90;13.70;99997.00;;;;340749;28;87697;-87
2022/10/09 00:40:52;;;;;;;;;;;13.40;99.90;13.80;99997.00;;;;340981;28;82638;-89
2022/10/09 00:41:04;;;;;;;;;;;13.40;99.90;13.80;99987.00;;;;340585;28;90792;-87
2022/10/09 00:41:27;;;;;;;;;;;13.40;99.90;13.70;99989.00;;;;339678;28;82373;-89
2022/10/09 00:41:39;;;;;;;;;;;13.40;99.90;13.60;99986.00;;;;340583;28;91599;-88
2022/10/09 00:41:51;;;;;;;;;;;13.40;99.90;13.60;100003.00;;;;340084;28;82523;-88
2022/10/09 00:42:03;;;;;;;;;;;13.40;99.90;13.60;99992.00;;;;340422;28;90219;-88
2022/10/09 00:42:15;;;;;;;;;;;13.40;99.90;13.70;100002.00;;;;342613;28;82332;-88
2022/10/09 00:42:27;;;;;;;;;;;13.40;99.90;13.60;99997.00;;;;341983;28;89816;-87
2022/10/09 00:42:38;;;;;;;;;;;13.40;99.90;13.60;99998.00;;;;338596;28;82682;-88
2022/10/09 00:42:56;;;;;;;;;;;13.40;99.90;13.40;99994.00;;;;344242;28;89635;-88
2022/10/09 00:43:16;;;;;;;;;;;13.40;99.90;13.50;99988.00;;;;342475;28;82572;-88
2022/10/09 00:43:49;;;;;;;;;;;13.30;99.90;13.40;99989.00;;;;341849;28;89949;-88
2022/10/09 00:44:02;;;;;;;;;;;13.30;99.90;13.40;99991.00;;;;342008;28;82454;-88
2022/10/09 00:44:48;;;;;;;;;;;13.30;99.90;13.60;100002.00;;;;343186;28;90151;-87
2022/10/09 00:45:00;;;;;;;;;;;13.30;99.90;13.70;99992.00;;;;343651;27;82444;-87
2022/10/09 00:45:18;;;;;;;;;;;13.30;99.90;13.70;99996.00;;;;340401;28;89881;-85
2022/10/09 00:45:29;;;;;;;;;;;13.30;99.90;13.60;99994.00;;;;338361;28;82300;-88
2022/10/09 00:45:47;;;;;;;;;;;13.30;99.90;13.60;99990.00;;;;343564;28;91824;-88
2022/10/09 00:45:59;;;;;;;;;;;13.30;99.90;13.50;99990.00;;;;348039;28;82481;-88
2022/10/09 00:46:44;;;;;;;;;;;13.30;99.90;13.50;99999.00;;;;347541;28;88116;-89
2022/10/09 00:46:55;;;;;;;;;;;13.30;99.90;13.60;99995.00;;;;346265;28;82464;-88
2022/10/09 00:47:11;;;;;;;;;;;13.30;99.90;13.60;99989.00;;;;344373;28;90427;-88
2022/10/09 00:47:41;;;;;;;;;;;13.30;99.90;13.50;99992.00;;;;347204;27;83558;-88
2022/10/09 00:47:55;;;;;;;;;;;13.30;99.90;13.60;100001.00;;;;346029;28;88004;-89
2022/10/09 00:48:06;;;;;;;;;;;13.30;99.90;13.60;99996.00;;;;347639;28;84439;-89
2022/10/09 00:48:18;;;;;;;;;;;13.30;99.90;13.50;99986.00;;;;346051;28;89484;-88
2022/10/09 00:48:30;;;;;;;;;;;13.30;99.90;13.50;99983.00;;;;347822;28;83389;-86
2022/10/09 00:48:42;;;;;;;;;;;13.30;99.90;13.50;99988.00;;;;347302;27;89493;-88
2022/10/09 00:49:00;;;;;;;;;;;13.30;99.90;13.50;99982.00;;;;349386;27;83324;-89
2022/10/09 00:49:27;;;;;;;;;;;13.30;99.90;13.50;99993.00;;;;349655;27;91453;-89
2022/10/09 00:49:38;;;;;;;;;;;13.30;99.90;13.50;99990.00;;;;347476;28;83655;-89
2022/10/09 00:49:52;;;;;;;;;;;13.30;99.90;13.40;99991.00;;;;346868;28;89774;-88
2022/10/09 00:50:16;;;;;;;;;;;13.30;99.90;13.40;99992.00;;;;347767;27;83512;-88
2022/10/09 00:51:03;;;;;;;;;;;13.20;99.90;13.40;99991.00;;;;347400;28;87798;-89
2022/10/09 00:51:14;;;;;;;;;;;13.20;99.90;13.40;99991.00;;;;343158;28;82610;-89
2022/10/09 00:51:27;;;;;;;;;;;13.20;99.90;13.30;99994.00;;;;346151;28;88876;-88
2022/10/09 00:51:39;;;;;;;;;;;13.20;99.90;13.40;99984.00;;;;346500;28;82570;-88
2022/10/09 00:51:51;;;;;;;;;;;13.20;99.90;13.50;99989.00;;;;347579;28;90553;-88
2022/10/09 00:52:03;;;;;;;;;;;13.20;99.90;13.40;99982.00;;;;346123;28;83566;-88
2022/10/09 00:52:15;;;;;;;;;;;13.20;99.90;13.40;99981.00;;;;347015;28;90853;-88
2022/10/09 00:52:27;;;;;;;;;;;13.20;99.90;13.40;99991.00;;;;347331;28;83526;-89
2022/10/09 00:52:38;;;;;;;;;;;13.20;99.90;13.40;99983.00;;;;347445;28;90722;-89
2022/10/09 00:52:56;;;;;;;;;;;13.20;99.90;13.40;99992.00;;;;347540;28;82699;-88
2022/10/09 00:53:09;;;;;;;;;;;13.20;99.90;13.50;99982.00;;;;347926;28;90240;-87
2022/10/09 00:53:21;;;;;;;;;;;13.20;99.90;13.50;99988.00;;;;348057;28;82556;-87
2022/10/09 00:53:33;;;;;;;;;;;13.20;99.90;13.50;99986.00;;;;347516;27;92150;-88
2022/10/09 00:53:45;;;;;;;;;;;13.20;99.90;13.50;99986.00;;;;346735;28;82660;-89
2022/10/09 00:53:56;;;;;;;;;;;13.20;99.90;13.50;99982.00;;;;347716;28;89539;-88
2022/10/09 00:54:10;;;;;;;;;;;13.20;99.90;13.50;99980.00;;;;347929;28;83707;-90
2022/10/09 00:54:23;;;;;;;;;;;13.20;99.90;13.50;99977.00;;;;347522;28;89596;-88
2022/10/09 00:54:35;;;;;;;;;;;13.20;99.90;13.50;99983.00;;;;348058;28;83417;-88
2022/10/09 00:54:47;;;;;;;;;;;13.20;99.90;13.50;99982.00;;;;346060;28;90509;-88
2022/10/09 00:54:59;;;;;;;;;;;13.20;99.90;13.40;99985.00;;;;347964;28;82402;-88
2022/10/09 00:55:11;;;;;;;;;;;13.20;99.90;13.50;99993.00;;;;346381;28;92032;-88
2022/10/09 00:55:23;;;;;;;;;;;13.20;99.90;13.40;99981.00;;;;346724;28;82635;-87
2022/10/09 00:55:35;;;;;;;;;;;13.20;99.90;13.40;99988.00;;;;346604;28;89505;-89
2022/10/09 00:55:48;;;;;;;;;;;13.20;99.90;13.40;99982.00;;;;348814;28;83443;-89
2022/10/09 00:56:00;;;;;;;;;;;13.20;99.90;13.30;99985.00;;;;346270;28;88415;-89
2022/10/09 00:56:12;;;;;;;;;;;13.20;99.90;13.40;99983.00;;;;347448;28;83486;-88
2022/10/09 00:56:23;;;;;;;;;;;13.20;99.90;13.40;99976.00;;;;348830;28;87723;-87
2022/10/09 00:56:35;;;;;;;;;;;13.20;99.90;13.50;99980.00;;;;349082;28;82420;-88
2022/10/09 00:56:47;;;;;;;;;;;13.20;99.90;13.50;99988.00;;;;349680;27;91418;-89
2022/10/09 00:56:59;;;;;;;;;;;13.20;99.90;13.50;99984.00;;;;349351;28;82437;-88
2022/10/09 00:57:11;;;;;;;;;;;13.20;99.90;13.50;99987.00;;;;350145;27;86407;-88
2022/10/09 00:57:23;;;;;;;;;;;13.20;99.90;13.50;99989.00;;;;348782;28;82608;-88
2022/10/09 00:57:34;;;;;;;;;;;13.20;99.90;13.50;99990.00;;;;347202;28;90229;-88
2022/10/09 00:57:46;;;;;;;;;;;13.20;99.90;13.50;99986.00;;;;348349;28;83269;-88
2022/10/09 00:57:58;;;;;;;;;;;13.20;99.90;13.50;99994.00;;;;348056;27;88705;-89
2022/10/09 00:58:11;;;;;;;;;;;13.20;99.90;13.50;99987.00;;;;349342;27;82371;-89
2022/10/09 00:58:23;;;;;;;;;;;13.20;99.90;13.50;99978.00;;;;345823;28;87832;-88
2022/10/09 00:58:34;;;;;;;;;;;13.20;99.90;13.50;99985.00;;;;348748;27;83683;-88
2022/10/09 00:58:47;;;;;;;;;;;13.20;99.90;13.50;99984.00;;;;347062;28;90217;-89
2022/10/09 00:58:59;;;;;;;;;;;13.20;99.90;13.40;99985.00;;;;349148;27;82536;-88
2022/10/09 00:59:11;;;;;;;;;;;13.20;99.90;13.50;99989.00;;;;350166;27;89837;-88
2022/10/09 00:59:23;;;;;;;;;;;13.20;99.90;13.50;99987.00;;;;346397;28;82456;-89
2022/10/09 00:59:35;;;;;;;;;;;13.20;99.90;13.50;99980.00;;;;344647;28;86445;-88
2022/10/09 00:59:46;;;;;;;;;;;13.20;99.90;13.60;99986.00;;;;344974;28;82531;-88
2022/10/09 01:00:00;;;;;;;;;;;13.20;99.90;13.60;99984.00;;;;344496;28;89008;-88
2022/10/09 01:00:12;;;;;;;;;;;13.20;99.90;13.50;99987.00;;;;346407;28;82610;-88
2022/10/09 01:00:25;;;;;;;;;;;13.20;99.90;13.50;99985.00;;;;344233;28;88363;-88
2022/10/09 01:00:38;;;;;;;;;;;13.20;99.90;13.50;99988.00;;;;345988;28;83605;-88
2022/10/09 01:00:49;;;;;;;;;;;13.20;99.90;13.50;99982.00;;;;347105;28;89615;-88
2022/10/09 01:01:01;;;;;;;;;;;13.20;99.90;13.50;99986.00;;;;347724;28;82543;-88
2022/10/09 01:01:13;;;;;;;;;;;13.20;99.90;13.60;99991.00;;;;343287;28;87442;-88
2022/10/09 01:01:26;;;;;;;;;;;13.20;99.90;13.50;99990.00;;;;346164;28;83303;-87
2022/10/09 01:01:39;;;;;;;;;;;13.20;99.90;13.40;99980.00;;;;345684;28;89788;-88
2022/10/09 01:01:51;;;;;;;;;;;13.20;99.90;13.40;99980.00;;;;344659;28;82684;-88
2022/10/09 01:02:03;;;;;;;;;;;13.20;99.90;13.30;99980.00;;;;345486;28;90212;-88
2022/10/09 01:02:15;;;;;;;;;;;13.20;99.90;13.30;99980.00;;;;347453;28;83313;-88
2022/10/09 01:02:27;;;;;;;;;;;13.20;99.90;13.40;99976.00;;;;346153;28;88007;-88
2022/10/09 01:02:39;;;;;;;;;;;13.20;99.90;13.40;99978.00;;;;345991;28;82564;-88
2022/10/09 01:02:51;;;;;;;;;;;13.20;99.90;13.50;99986.00;;;;348909;27;90291;-89
2022/10/09 01:03:04;;;;;;;;;;;13.20;99.90;13.50;99989.00;;;;349089;27;83358;-88
2022/10/09 01:03:15;;;;;;;;;;;13.20;99.90;13.50;99985.00;;;;346850;28;90567;-88
2022/10/09 01:03:27;;;;;;;;;;;13.20;99.90;13.40;99981.00;;;;347366;27;83615;-89
2022/10/09 01:03:39;;;;;;;;;;;13.20;99.90;13.50;99978.00;;;;345984;28;86600;-89